This is the latest recevied weather packets stored in our database for station/object WB8SKP-WX. If no packets are shown the sender has not sent any weather packets the latest 10 day(s).
| Time | Temp. | Humidity | Pressure | Rain* | Wind** | Luminosity | Snow |
|---|---|---|---|---|---|---|---|
| 1777303758 | 23.33° C | 73% | 993 hPa | 0 mm | - | - | - |
| 1777302551 | 22.78° C | 73% | 992.9 hPa | 0 mm | - | - | - |
| 1777301320 | 22.22° C | 74% | 992.9 hPa | 0 mm | - | - | - |
| 1777300090 | 21.11° C | 78% | 993.1 hPa | 0 mm | - | - | - |
| 1777298890 | 20.56° C | 79% | 993.1 hPa | 0 mm | - | - | - |
| 1777297690 | 20° C | 81% | 993.7 hPa | 0 mm | - | - | - |
| 1777296460 | 20° C | 84% | 992.9 hPa | 0 mm | - | - | - |
| 1777295231 | 20.56° C | 78% | 993.7 hPa | 0 mm | - | - | - |
| 1777294030 | 20° C | 79% | 993.2 hPa | 0 mm | - | - | - |
| 1777292799 | 19.44° C | 81% | 993.6 hPa | 0 mm | - | - | - |
| 1777291600 | 19.44° C | 80% | 993.1 hPa | 0 mm | - | - | - |
| 1777290399 | 18.89° C | 79% | 993.1 hPa | 0 mm | - | - | - |
| 1777287973 | 18.33° C | 80% | 993.6 hPa | 0 mm | - | - | - |
| 1777286770 | 18.33° C | 78% | 993.5 hPa | 0 mm | - | - | - |
| 1777285540 | 18.89° C | 76% | 993.2 hPa | 0 mm | - | - | - |
| 1777284339 | 18.89° C | 73% | 993.2 hPa | 0 mm | - | - | - |
| 1777283141 | 19.44° C | 73% | 993 hPa | 0 mm | - | - | - |
| 1777281939 | 19.44° C | 74% | 992.6 hPa | 0 mm | - | - | - |
| 1777280708 | 19.44° C | 77% | 992.9 hPa | 0 mm | - | - | - |
| 1777278279 | 18.89° C | 80% | 993.4 hPa | 0 mm | - | - | - |
| 1777277048 | 19.44° C | 76% | 993.4 hPa | 0 mm | - | - | - |
| 1777275848 | 19.44° C | 75% | 993.5 hPa | 0 mm | - | - | - |
| 1777274618 | 19.44° C | 76% | 993.6 hPa | 0 mm | - | - | - |
| 1777273418 | 19.44° C | 74% | 993.8 hPa | 0 mm | - | - | - |
| 1777272188 | 19.44° C | 74% | 993.5 hPa | 0 mm | - | - | - |
* Rain latest hour (hover to see other rain measurements)
** Current wind speed in m/s (hover to see current wind gust speed)